createdAt,value
2023-05-14T00:01:48.731Z,11.10
2023-05-14T00:04:18.058Z,12.05
2023-05-14T00:06:44.414Z,12.65
2023-05-14T00:09:10.985Z,12.48
2023-05-14T00:11:37.412Z,12.55
2023-05-14T00:14:03.794Z,13.77
2023-05-14T00:16:30.435Z,10.80
2023-05-14T00:18:56.871Z,11.23
2023-05-14T00:21:23.513Z,11.93
2023-05-14T00:23:49.854Z,10.48
2023-05-14T00:26:16.211Z,14.65
2023-05-14T00:28:42.611Z,12.18
2023-05-14T00:31:08.996Z,13.70
2023-05-14T00:33:35.404Z,11.60
2023-05-14T00:36:02.137Z,13.13
2023-05-14T00:38:28.709Z,12.50
2023-05-14T00:40:55.189Z,15.45
2023-05-14T00:43:22.649Z,10.95
2023-05-14T00:45:52.914Z,11.50
2023-05-14T00:48:20.132Z,11.07
2023-05-14T00:50:46.689Z,13.13
2023-05-14T00:53:15.468Z,12.50
2023-05-14T00:55:42.508Z,10.50
2023-05-14T00:58:12.505Z,13.60
2023-05-14T01:00:39.498Z,12.52
2023-05-14T01:03:07.638Z,13.27
2023-05-14T01:05:39.471Z,12.50
2023-05-14T01:08:26.079Z,12.88
2023-05-14T01:10:55.209Z,12.68
2023-05-14T01:13:24.723Z,12.63
2023-05-14T01:15:52.462Z,13.77
2023-05-14T01:18:19.585Z,11.82
2023-05-14T01:20:46.026Z,13.23
2023-05-14T01:23:12.403Z,13.77
2023-05-14T01:25:38.751Z,12.38
2023-05-14T01:28:18.658Z,13.63
2023-05-14T01:30:58.337Z,13.07
2023-05-14T01:33:25.924Z,13.52
2023-05-14T01:35:53.731Z,15.10
2023-05-14T01:38:20.264Z,11.30
2023-05-14T01:40:47.095Z,13.32
2023-05-14T01:43:15.096Z,12.57
2023-05-14T01:45:41.572Z,14.57
2023-05-14T01:48:08.119Z,14.75
2023-05-14T01:50:34.553Z,11.68
2023-05-14T01:53:00.986Z,12.15
2023-05-14T01:55:27.343Z,12.55
2023-05-14T01:57:53.704Z,12.52
2023-05-14T02:00:20.928Z,11.93
2023-05-14T02:02:47.473Z,13.43
2023-05-14T02:05:13.945Z,14.88
2023-05-14T02:07:40.412Z,12.27
2023-05-14T02:10:07.201Z,13.98
2023-05-14T02:12:33.724Z,13.32
2023-05-14T02:15:00.100Z,12.05
2023-05-14T02:17:28.881Z,12.68
2023-05-14T02:19:55.313Z,12.75
2023-05-14T02:22:21.669Z,11.63
2023-05-14T02:24:49.670Z,12.00
2023-05-14T02:27:16.049Z,12.40
2023-05-14T02:29:42.390Z,13.60
2023-05-14T02:32:08.847Z,12.32
2023-05-14T02:34:35.586Z,12.20
2023-05-14T02:37:01.953Z,12.68
2023-05-14T02:39:28.295Z,10.95
2023-05-14T02:41:54.766Z,14.15
2023-05-14T02:44:21.096Z,12.30
2023-05-14T02:46:47.604Z,12.52
2023-05-14T02:49:14.083Z,12.07
2023-05-14T02:51:40.540Z,12.85
2023-05-14T02:54:07.227Z,12.63
2023-05-14T02:56:33.647Z,11.82
2023-05-14T02:59:00.209Z,12.20
2023-05-14T03:01:26.902Z,12.68
2023-05-14T03:03:53.766Z,12.13
2023-05-14T03:06:20.139Z,11.00
2023-05-14T03:08:46.467Z,12.02
2023-05-14T03:11:12.810Z,10.70
2023-05-14T03:13:39.183Z,11.02
2023-05-14T03:16:05.885Z,14.27
2023-05-14T03:18:33.355Z,15.77
2023-05-14T03:20:59.766Z,11.75
2023-05-14T03:23:26.140Z,10.77
2023-05-14T03:25:52.599Z,13.77
2023-05-14T03:28:21.392Z,13.18
2023-05-14T03:30:50.270Z,13.05
2023-05-14T03:33:16.815Z,11.48
2023-05-14T03:35:43.150Z,10.75
2023-05-14T03:38:09.491Z,11.30
2023-05-14T03:40:36.113Z,12.48
2023-05-14T03:43:02.523Z,13.77
2023-05-14T03:45:30.488Z,11.18
2023-05-14T03:47:56.914Z,10.68
2023-05-14T03:50:25.606Z,10.68
2023-05-14T03:52:52.556Z,11.18
2023-05-14T03:55:19.813Z,11.85
2023-05-14T03:57:46.251Z,10.20
2023-05-14T04:00:12.968Z,10.32
2023-05-14T04:02:39.383Z,10.85
2023-05-14T04:05:08.772Z,9.75
2023-05-14T04:07:35.151Z,11.35
2023-05-14T04:10:04.348Z,10.50
2023-05-14T04:12:31.119Z,9.93
2023-05-14T04:14:58.185Z,11.45
2023-05-14T04:17:26.887Z,8.52
2023-05-14T04:19:53.284Z,12.75
2023-05-14T04:22:19.699Z,9.02
2023-05-14T04:24:46.109Z,10.38
2023-05-14T04:27:19.371Z,11.82
2023-05-14T04:29:45.721Z,9.77
2023-05-14T04:32:12.210Z,11.55
2023-05-14T04:34:38.593Z,10.13
2023-05-14T04:37:04.940Z,9.25
2023-05-14T04:39:31.370Z,8.73
2023-05-14T04:41:57.703Z,8.98
2023-05-14T04:44:24.076Z,10.73
2023-05-14T04:46:50.585Z,11.15
2023-05-14T04:49:16.965Z,8.73
2023-05-14T04:51:43.506Z,10.07
2023-05-14T04:54:10.024Z,10.05
2023-05-14T04:56:36.385Z,12.63
2023-05-14T04:59:02.753Z,9.18
2023-05-14T05:01:29.284Z,14.38
2023-05-14T05:03:57.562Z,10.35
2023-05-14T05:06:23.992Z,11.35
2023-05-14T05:08:50.435Z,10.52
2023-05-14T05:11:16.896Z,10.55
2023-05-14T05:13:43.357Z,15.02
2023-05-14T05:16:09.773Z,12.25
2023-05-14T05:18:36.272Z,13.73
2023-05-14T05:21:02.827Z,13.05
2023-05-14T05:23:29.240Z,13.82
2023-05-14T05:25:55.706Z,12.25
2023-05-14T05:28:22.122Z,12.63
2023-05-14T05:30:48.554Z,13.32
2023-05-14T05:33:14.945Z,11.93
2023-05-14T05:35:41.793Z,11.82
2023-05-14T05:38:08.147Z,12.30
2023-05-14T05:40:34.540Z,11.10
2023-05-14T05:43:00.905Z,10.25
2023-05-14T05:45:27.285Z,11.20
2023-05-14T05:47:53.640Z,12.48
2023-05-14T05:50:20.250Z,12.23
2023-05-14T05:52:46.672Z,15.00
2023-05-14T05:55:13.105Z,12.30
2023-05-14T05:57:39.464Z,11.75
2023-05-14T06:00:15.169Z,13.98
2023-05-14T06:02:41.991Z,20.38
2023-05-14T06:05:09.700Z,12.52
2023-05-14T06:07:36.484Z,11.27
2023-05-14T06:10:03.291Z,12.43
2023-05-14T06:12:29.706Z,13.68
2023-05-14T06:14:58.566Z,36.38
2023-05-14T06:17:25.341Z,14.23
2023-05-14T06:19:52.219Z,13.35
2023-05-14T06:22:18.903Z,12.57
2023-05-14T06:24:45.486Z,12.25
2023-05-14T06:27:11.927Z,11.82
2023-05-14T06:29:38.437Z,11.60
2023-05-14T06:32:05.151Z,12.98
2023-05-14T06:34:31.615Z,13.52
2023-05-14T06:36:58.042Z,16.35
2023-05-14T06:39:24.522Z,14.63
2023-05-14T06:41:51.013Z,15.27
2023-05-14T06:44:19.219Z,14.68
2023-05-14T06:46:45.638Z,14.27
2023-05-14T06:49:14.525Z,12.75
2023-05-14T06:51:41.866Z,15.90
2023-05-14T06:54:08.275Z,13.57
2023-05-14T06:56:34.681Z,11.38
2023-05-14T06:59:01.097Z,11.27
2023-05-14T07:01:27.895Z,11.57
2023-05-14T07:03:54.312Z,12.13
2023-05-14T07:06:21.295Z,10.63
2023-05-14T07:08:47.683Z,11.88
2023-05-14T07:11:14.451Z,10.27
2023-05-14T07:13:43.337Z,9.32
2023-05-14T07:16:10.327Z,9.73
2023-05-14T07:18:36.828Z,10.57
2023-05-14T07:21:06.398Z,9.95
2023-05-14T07:23:36.018Z,8.20
2023-05-14T07:26:02.720Z,8.45
2023-05-14T07:28:29.125Z,7.70
2023-05-14T07:30:55.640Z,7.72
2023-05-14T07:33:22.311Z,6.90
2023-05-14T07:35:51.317Z,7.78
2023-05-14T07:38:18.197Z,7.28
2023-05-14T07:40:44.691Z,6.50
2023-05-14T07:43:11.093Z,11.63
2023-05-14T07:45:38.972Z,8.90
2023-05-14T07:48:05.464Z,10.50
2023-05-14T07:50:31.961Z,6.20
2023-05-14T07:52:58.320Z,9.27
2023-05-14T07:55:24.673Z,7.90
2023-05-14T07:57:51.045Z,8.10
2023-05-14T08:00:17.496Z,7.25
2023-05-14T08:02:44.217Z,8.57
2023-05-14T08:05:10.866Z,7.82
2023-05-14T08:07:40.430Z,7.95
2023-05-14T08:10:07.782Z,7.47
2023-05-14T08:12:34.266Z,10.63
2023-05-14T08:15:00.610Z,7.70
2023-05-14T08:17:27.068Z,7.85
2023-05-14T08:19:53.888Z,8.18
2023-05-14T08:22:20.322Z,9.98
2023-05-14T08:24:46.727Z,7.72
2023-05-14T08:27:13.216Z,6.50
2023-05-14T08:29:39.602Z,6.80
2023-05-14T08:32:19.347Z,7.57
2023-05-14T08:34:48.897Z,5.15
2023-05-14T08:37:15.310Z,6.18
2023-05-14T08:39:41.669Z,5.72
2023-05-14T08:42:09.459Z,5.05
2023-05-14T08:44:39.900Z,5.65
2023-05-14T08:47:07.010Z,5.40
2023-05-14T08:49:36.581Z,6.03
2023-05-14T08:52:03.017Z,5.43
2023-05-14T08:54:29.990Z,6.13
2023-05-14T08:56:56.434Z,7.40
2023-05-14T08:59:22.786Z,5.32
2023-05-14T09:01:52.682Z,6.55
2023-05-14T09:04:23.850Z,5.55
2023-05-14T09:06:53.874Z,5.95
2023-05-14T09:09:23.275Z,6.68
2023-05-14T09:11:50.451Z,6.00
2023-05-14T09:14:17.067Z,16.80
2023-05-14T09:16:47.310Z,12.93
2023-05-14T09:19:18.838Z,9.18
2023-05-14T09:21:45.881Z,7.32
2023-05-14T09:24:19.728Z,13.90
2023-05-14T09:26:49.800Z,10.27
2023-05-14T09:29:16.619Z,6.63
2023-05-14T09:31:43.039Z,5.30
2023-05-14T09:34:10.948Z,5.30
2023-05-14T09:36:37.502Z,6.43
2023-05-14T09:39:06.896Z,4.78
2023-05-14T09:41:33.455Z,5.20
2023-05-14T09:44:04.177Z,4.22
2023-05-14T09:46:31.958Z,4.13
2023-05-14T09:48:58.517Z,5.53
2023-05-14T09:51:26.052Z,3.90
2023-05-14T09:53:52.811Z,6.45
2023-05-14T09:56:19.787Z,10.43
2023-05-14T09:58:46.166Z,5.50
2023-05-14T10:01:13.042Z,5.13
2023-05-14T10:03:39.530Z,6.03
2023-05-14T10:06:06.611Z,4.65
2023-05-14T10:08:36.284Z,4.28
2023-05-14T10:11:07.567Z,4.30
2023-05-14T10:13:40.517Z,4.55
2023-05-14T10:16:06.957Z,4.47
2023-05-14T10:18:36.148Z,3.97
2023-05-14T10:21:06.494Z,9.23
2023-05-14T10:23:33.632Z,4.38
2023-05-14T10:26:00.604Z,4.32
2023-05-14T10:28:29.954Z,3.25
2023-05-14T10:30:56.440Z,3.35
2023-05-14T10:33:22.834Z,3.17
2023-05-14T10:36:03.964Z,3.00
2023-05-14T10:38:32.473Z,2.95
2023-05-14T10:41:00.284Z,3.05
2023-05-14T10:43:30.781Z,4.18
2023-05-14T10:46:00.296Z,3.92
2023-05-14T10:48:26.866Z,5.35
2023-05-14T10:50:53.742Z,4.15
2023-05-14T10:53:21.118Z,3.58
2023-05-14T10:55:47.488Z,3.63
2023-05-14T10:58:14.864Z,3.97
2023-05-14T11:00:41.213Z,3.58
2023-05-14T11:03:07.619Z,5.75
2023-05-14T11:05:37.156Z,4.45
2023-05-14T11:08:05.716Z,4.22
2023-05-14T11:10:35.339Z,3.65
2023-05-14T11:13:04.218Z,4.70
2023-05-14T11:15:31.031Z,3.92
2023-05-14T11:17:57.492Z,4.18
2023-05-14T11:20:24.163Z,3.60
2023-05-14T11:22:53.758Z,5.05
2023-05-14T11:25:21.766Z,4.32
2023-05-14T11:27:49.925Z,4.32
2023-05-14T11:30:17.296Z,4.40
2023-05-14T11:32:44.760Z,5.68
2023-05-14T11:35:11.199Z,3.83
2023-05-14T11:37:37.660Z,3.38
2023-05-14T11:40:07.924Z,5.70
2023-05-14T11:42:34.344Z,6.47
2023-05-14T11:45:01.322Z,5.50
2023-05-14T11:47:29.359Z,4.68
2023-05-14T11:49:55.779Z,4.47
2023-05-14T11:52:22.310Z,4.82
2023-05-14T11:54:51.595Z,3.92
2023-05-14T11:57:19.126Z,5.03
2023-05-14T11:59:45.853Z,5.65
2023-05-14T12:02:13.363Z,5.28
2023-05-14T12:04:42.758Z,4.32
2023-05-14T12:07:10.339Z,3.75
2023-05-14T12:09:49.019Z,3.60
2023-05-14T12:12:20.091Z,4.57
2023-05-14T12:14:46.878Z,4.95
2023-05-14T12:17:22.804Z,4.38
2023-05-14T12:19:50.372Z,4.85
2023-05-14T12:22:18.833Z,3.08
2023-05-14T12:24:55.313Z,3.08
2023-05-14T12:27:22.475Z,5.50
2023-05-14T12:29:53.348Z,5.28
2023-05-14T12:32:20.309Z,5.05
2023-05-14T12:34:46.662Z,6.10
2023-05-14T12:37:13.068Z,7.93
2023-05-14T12:39:39.444Z,6.38
2023-05-14T12:42:06.103Z,5.07
2023-05-14T12:44:32.466Z,6.68
2023-05-14T12:46:58.995Z,5.30
2023-05-14T12:49:25.522Z,5.57
2023-05-14T12:51:57.381Z,4.93
2023-05-14T12:54:34.681Z,4.47
2023-05-14T12:57:01.331Z,4.72
2023-05-14T12:59:28.760Z,6.28
2023-05-14T13:01:55.196Z,5.15
2023-05-14T13:04:21.714Z,4.65
2023-05-14T13:06:48.142Z,4.60
2023-05-14T13:09:14.552Z,5.75
2023-05-14T13:11:41.097Z,5.00
2023-05-14T13:14:07.503Z,5.18
2023-05-14T13:16:33.993Z,3.47
2023-05-14T13:19:00.627Z,3.38
2023-05-14T13:21:27.080Z,5.57
2023-05-14T13:23:53.446Z,3.63
2023-05-14T13:26:19.897Z,4.68
2023-05-14T13:28:46.318Z,4.75
2023-05-14T13:31:13.258Z,8.70
2023-05-14T13:33:42.958Z,4.15
2023-05-14T13:36:10.161Z,5.13
2023-05-14T13:38:36.577Z,3.10
2023-05-14T13:41:03.181Z,3.47
2023-05-14T13:43:32.453Z,3.25
2023-05-14T13:45:58.993Z,3.65
2023-05-14T13:48:25.805Z,2.30
2023-05-14T13:50:52.144Z,2.58
2023-05-14T13:53:22.905Z,2.38
2023-05-14T13:55:49.572Z,2.97
2023-05-14T13:58:16.370Z,2.47
2023-05-14T14:00:45.433Z,1.67
2023-05-14T14:03:12.027Z,8.88
2023-05-14T14:05:38.519Z,1.60
2023-05-14T14:08:22.089Z,1.58
2023-05-14T14:10:49.756Z,1.35
2023-05-14T14:13:16.236Z,3.03
2023-05-14T14:15:43.531Z,6.25
2023-05-14T14:18:10.160Z,1.08
2023-05-14T14:20:36.754Z,1.42
2023-05-14T14:23:03.220Z,1.55
2023-05-14T14:25:29.615Z,1.33
2023-05-14T14:27:58.366Z,1.33
2023-05-14T14:30:24.813Z,1.48
2023-05-14T14:32:51.478Z,1.40
2023-05-14T14:35:18.851Z,1.55
2023-05-14T14:37:49.092Z,1.85
2023-05-14T14:40:16.575Z,1.73
2023-05-14T14:42:43.483Z,1.33
2023-05-14T14:45:12.412Z,1.92
2023-05-14T14:47:38.974Z,1.40
2023-05-14T14:50:06.198Z,1.70
2023-05-14T14:52:33.297Z,2.28
2023-05-14T14:54:59.967Z,2.10
2023-05-14T14:57:26.922Z,1.80
2023-05-14T14:59:53.612Z,1.85
2023-05-14T15:02:20.311Z,1.58
2023-05-14T15:04:49.237Z,1.67
2023-05-14T15:07:20.261Z,1.25
2023-05-14T15:09:46.730Z,1.40
2023-05-14T15:12:14.265Z,1.30
2023-05-14T15:14:43.445Z,1.75
2023-05-14T15:17:10.631Z,3.53
2023-05-14T15:19:37.425Z,2.00
2023-05-14T15:22:04.216Z,2.42
2023-05-14T15:24:30.852Z,1.33
2023-05-14T15:26:57.315Z,1.20
2023-05-14T15:29:23.896Z,1.25
2023-05-14T15:31:50.472Z,1.10
2023-05-14T15:34:17.101Z,3.70
2023-05-14T15:36:46.368Z,1.98
2023-05-14T15:39:12.982Z,6.05
2023-05-14T15:41:39.552Z,2.00
2023-05-14T15:44:06.195Z,3.00
2023-05-14T15:46:32.758Z,6.00
2023-05-14T15:48:59.355Z,3.97
2023-05-14T15:51:25.824Z,2.17
2023-05-14T15:53:55.479Z,1.70
2023-05-14T15:56:22.812Z,1.75
2023-05-14T15:58:49.466Z,1.75
2023-05-14T16:01:16.007Z,1.98
2023-05-14T16:03:42.636Z,1.30
2023-05-14T16:06:09.667Z,1.60
2023-05-14T16:08:36.156Z,1.77
2023-05-14T16:11:02.729Z,1.50
2023-05-14T16:13:31.530Z,1.30
2023-05-14T16:15:59.538Z,1.85
2023-05-14T16:18:28.184Z,2.58
2023-05-14T16:20:54.695Z,2.30
2023-05-14T16:23:21.592Z,3.00
2023-05-14T16:25:48.091Z,2.10
2023-05-14T16:28:14.641Z,1.65
2023-05-14T16:30:41.025Z,3.70
2023-05-14T16:33:07.488Z,3.30
2023-05-14T16:35:33.970Z,2.95
2023-05-14T16:38:00.445Z,1.85
2023-05-14T16:40:27.076Z,1.52
2023-05-14T16:42:53.687Z,3.65
2023-05-14T16:45:22.892Z,2.85
2023-05-14T16:47:49.564Z,2.25
2023-05-14T16:50:16.133Z,1.48
2023-05-14T16:52:42.516Z,1.60
2023-05-14T16:55:09.207Z,2.13
2023-05-14T16:57:35.741Z,1.83
2023-05-14T17:00:06.082Z,2.17
2023-05-14T17:02:33.379Z,4.53
2023-05-14T17:05:00.224Z,1.85
2023-05-14T17:07:29.394Z,2.15
2023-05-14T17:09:56.062Z,1.75
2023-05-14T17:12:23.537Z,4.03
2023-05-14T17:14:52.656Z,3.08
2023-05-14T17:17:21.604Z,3.78
2023-05-14T17:19:48.081Z,2.35
2023-05-14T17:22:14.644Z,1.90
2023-05-14T17:24:42.400Z,1.92
2023-05-14T17:27:08.912Z,3.00
2023-05-14T17:29:35.349Z,2.85
2023-05-14T17:32:03.690Z,3.42
2023-05-14T17:34:30.555Z,3.55
2023-05-14T17:36:57.108Z,2.80
2023-05-14T17:39:23.560Z,2.90
2023-05-14T17:41:50.024Z,2.08
2023-05-14T17:44:16.505Z,2.28
2023-05-14T17:46:44.674Z,1.98
2023-05-14T17:49:12.006Z,1.02
2023-05-14T17:51:38.538Z,2.00
2023-05-14T17:54:05.066Z,2.35
2023-05-14T17:56:31.538Z,1.85
2023-05-14T17:58:57.999Z,1.20
2023-05-14T18:01:24.687Z,2.00
2023-05-14T18:03:51.347Z,1.85
2023-05-14T18:06:20.319Z,1.10
2023-05-14T18:08:46.794Z,0.85
2023-05-14T18:11:13.294Z,32.95
2023-05-14T18:13:39.764Z,76.78
2023-05-14T18:16:06.354Z,12.05
2023-05-14T18:18:32.908Z,8.75
2023-05-14T18:21:02.003Z,175.55
2023-05-14T18:23:28.476Z,320.38
2023-05-14T18:25:55.006Z,230.07
2023-05-14T18:28:21.878Z,20.52
2023-05-14T18:30:49.245Z,5.82
2023-05-14T18:33:15.823Z,2.90
2023-05-14T18:35:43.519Z,2.95
2023-05-14T18:38:11.869Z,3.67
2023-05-14T18:40:38.578Z,2.83
2023-05-14T18:43:05.126Z,1.88
2023-05-14T18:45:31.564Z,2.95
2023-05-14T18:47:58.054Z,0.90
2023-05-14T18:50:24.534Z,2.05
2023-05-14T18:52:51.013Z,1.38
2023-05-14T18:55:17.518Z,1.45
2023-05-14T18:57:43.985Z,1.23
2023-05-14T19:00:11.112Z,1.45
2023-05-14T19:02:37.741Z,1.90
2023-05-14T19:05:04.523Z,1.33
2023-05-14T19:07:33.604Z,1.60
2023-05-14T19:10:00.163Z,3.90
2023-05-14T19:12:31.647Z,1.73
2023-05-14T19:14:58.116Z,2.10
2023-05-14T19:17:28.978Z,2.72
2023-05-14T19:19:55.818Z,4.72
2023-05-14T19:22:22.383Z,1.40
2023-05-14T19:24:51.336Z,1.40
2023-05-14T19:27:17.766Z,6.82
2023-05-14T19:29:44.543Z,2.22
2023-05-14T19:32:13.209Z,3.40
2023-05-14T19:34:39.826Z,1.80
2023-05-14T19:37:06.383Z,2.58
2023-05-14T19:39:32.863Z,1.40
2023-05-14T19:42:01.817Z,4.25
2023-05-14T19:44:28.300Z,4.30
2023-05-14T19:46:54.848Z,3.90
2023-05-14T19:49:21.384Z,2.00
2023-05-14T19:51:47.877Z,2.50
2023-05-14T19:54:14.753Z,1.88
2023-05-14T19:56:41.267Z,2.58
2023-05-14T19:59:07.779Z,1.10
2023-05-14T20:01:34.839Z,1.08
2023-05-14T20:04:02.286Z,1.80
2023-05-14T20:06:28.798Z,1.38
2023-05-14T20:08:55.443Z,1.70
2023-05-14T20:11:21.898Z,2.15
2023-05-14T20:13:48.407Z,2.38
2023-05-14T20:16:17.668Z,2.08
2023-05-14T20:18:44.870Z,4.03
2023-05-14T20:21:11.629Z,2.88
2023-05-14T20:23:38.133Z,0.98
2023-05-14T20:26:04.659Z,2.67
2023-05-14T20:28:31.154Z,3.28
2023-05-14T20:31:01.152Z,1.33
2023-05-14T20:33:29.119Z,1.38
2023-05-14T20:35:55.810Z,1.30
2023-05-14T20:38:22.567Z,1.15
2023-05-14T20:40:49.198Z,2.58
2023-05-14T20:43:15.762Z,1.60
2023-05-14T20:45:42.259Z,2.03
2023-05-14T20:48:11.373Z,1.30
2023-05-14T20:50:38.070Z,1.40
2023-05-14T20:53:04.584Z,1.98
2023-05-14T20:55:31.084Z,3.95
2023-05-14T20:57:57.594Z,1.20
2023-05-14T21:00:24.078Z,2.33
2023-05-14T21:02:50.787Z,1.23
2023-05-14T21:05:17.486Z,1.40
2023-05-14T21:07:43.968Z,1.75
2023-05-14T21:10:10.628Z,1.35
2023-05-14T21:12:37.164Z,3.15
2023-05-14T21:15:03.804Z,1.58
2023-05-14T21:17:32.709Z,3.45
2023-05-14T21:19:59.295Z,1.20
2023-05-14T21:22:26.627Z,2.33
2023-05-14T21:24:53.107Z,0.98
2023-05-14T21:27:19.920Z,1.83
2023-05-14T21:29:46.582Z,1.67
2023-05-14T21:32:13.233Z,1.20
2023-05-14T21:34:39.750Z,2.10
2023-05-14T21:37:08.732Z,1.30
2023-05-14T21:39:37.775Z,1.65
2023-05-14T21:42:04.404Z,2.47
2023-05-14T21:44:30.851Z,1.13
2023-05-14T21:46:59.771Z,1.38
2023-05-14T21:49:26.225Z,1.67
2023-05-14T21:51:55.116Z,2.15
2023-05-14T21:54:21.726Z,1.10
2023-05-14T21:56:48.286Z,1.30
2023-05-14T21:59:14.784Z,1.15
2023-05-14T22:02:00.758Z,3.10
2023-05-14T22:04:30.302Z,3.60
2023-05-14T22:06:56.792Z,1.23
2023-05-14T22:09:23.206Z,1.20
2023-05-14T22:11:49.656Z,1.42
2023-05-14T22:14:16.090Z,3.08
2023-05-14T22:16:42.684Z,1.33
2023-05-14T22:19:09.233Z,1.77
2023-05-14T22:21:35.857Z,1.50
2023-05-14T22:24:02.345Z,6.53
2023-05-14T22:26:29.107Z,1.40
2023-05-14T22:28:57.953Z,1.30
2023-05-14T22:31:24.863Z,1.60
2023-05-14T22:33:51.416Z,1.38
2023-05-14T22:36:17.920Z,1.73
2023-05-14T22:38:44.383Z,1.77
2023-05-14T22:41:11.015Z,2.35
2023-05-14T22:43:37.555Z,1.92
2023-05-14T22:46:04.190Z,2.25
2023-05-14T22:48:30.829Z,1.58
2023-05-14T22:50:57.291Z,2.03
2023-05-14T22:53:25.141Z,2.63
2023-05-14T22:55:51.840Z,3.85
2023-05-14T22:58:18.249Z,2.53
2023-05-14T23:00:44.653Z,3.80
2023-05-14T23:03:11.020Z,1.95
2023-05-14T23:05:37.497Z,1.70
2023-05-14T23:08:03.910Z,3.03
2023-05-14T23:10:30.373Z,2.95
2023-05-14T23:12:56.759Z,2.00
2023-05-14T23:15:23.577Z,3.13
2023-05-14T23:17:50.213Z,2.47
2023-05-14T23:20:16.831Z,3.42
2023-05-14T23:22:43.204Z,4.47
2023-05-14T23:25:11.959Z,2.50
2023-05-14T23:27:38.414Z,2.65
2023-05-14T23:30:04.964Z,1.98
2023-05-14T23:32:31.420Z,2.33
2023-05-14T23:34:57.833Z,3.88
2023-05-14T23:37:24.417Z,2.17
2023-05-14T23:39:50.826Z,3.40
2023-05-14T23:42:17.169Z,1.95
2023-05-14T23:44:43.650Z,2.00
2023-05-14T23:47:10.123Z,1.65
2023-05-14T23:49:36.654Z,1.60
2023-05-14T23:52:03.058Z,2.35
2023-05-14T23:54:29.508Z,3.38
2023-05-14T23:56:55.921Z,2.08
2023-05-14T23:59:22.516Z,3.17
